sensor_id;sensor_type;location;lat;lon;timestamp;P1;durP1;ratioP1;P2;durP2;ratioP2
68319;SDS011;55168;51.120;17.024;2022-11-15T00:00:00;71.6;;;45.8;;
68319;SDS011;55168;51.120;17.024;2022-11-15T00:01:00;71.6;;;45.8;;
68319;SDS011;55168;51.120;17.024;2022-11-15T00:02:00;73.1;;;44.6;;
68319;SDS011;55168;51.120;17.024;2022-11-15T00:03:00;73.1;;;44.6;;
68319;SDS011;55168;51.120;17.024;2022-11-15T00:04:00;73.1;;;44.6;;
68319;SDS011;55168;51.120;17.024;2022-11-15T00:05:00;73.1;;;44.6;;
68319;SDS011;55168;51.120;17.024;2022-11-15T00:06:03;73.1;;;44.6;;
68319;SDS011;55168;51.120;17.024;2022-11-15T00:07:00;67.9;;;44.8;;
68319;SDS011;55168;51.120;17.024;2022-11-15T00:08:00;67.9;;;44.8;;
68319;SDS011;55168;51.120;17.024;2022-11-15T00:09:00;67.9;;;44.8;;
68319;SDS011;55168;51.120;17.024;2022-11-15T00:10:00;67.9;;;44.8;;
68319;SDS011;55168;51.120;17.024;2022-11-15T00:11:01;67.9;;;44.8;;
68319;SDS011;55168;51.120;17.024;2022-11-15T00:12:00;72.0;;;44.9;;
68319;SDS011;55168;51.120;17.024;2022-11-15T00:13:00;72.0;;;44.9;;
68319;SDS011;55168;51.120;17.024;2022-11-15T00:14:00;72.0;;;44.9;;
68319;SDS011;55168;51.120;17.024;2022-11-15T00:15:00;72.0;;;44.9;;
68319;SDS011;55168;51.120;17.024;2022-11-15T00:16:00;72.0;;;44.9;;
68319;SDS011;55168;51.120;17.024;2022-11-15T00:17:00;72.2;;;44.3;;
68319;SDS011;55168;51.120;17.024;2022-11-15T00:18:00;72.2;;;44.3;;
68319;SDS011;55168;51.120;17.024;2022-11-15T00:19:00;72.2;;;44.3;;
68319;SDS011;55168;51.120;17.024;2022-11-15T00:20:00;72.2;;;44.3;;
68319;SDS011;55168;51.120;17.024;2022-11-15T00:21:05;72.2;;;44.3;;
68319;SDS011;55168;51.120;17.024;2022-11-15T00:22:00;69.4;;;45.3;;
68319;SDS011;55168;51.120;17.024;2022-11-15T00:23:00;69.4;;;45.3;;
68319;SDS011;55168;51.120;17.024;2022-11-15T00:24:00;69.4;;;45.3;;
68319;SDS011;55168;51.120;17.024;2022-11-15T00:25:00;69.4;;;45.3;;
68319;SDS011;55168;51.120;17.024;2022-11-15T00:26:00;69.4;;;45.3;;
68319;SDS011;55168;51.120;17.024;2022-11-15T00:27:00;66.8;;;43.7;;
68319;SDS011;55168;51.120;17.024;2022-11-15T00:28:00;66.8;;;43.7;;
68319;SDS011;55168;51.120;17.024;2022-11-15T00:29:00;66.8;;;43.7;;
68319;SDS011;55168;51.120;17.024;2022-11-15T00:30:00;66.8;;;43.7;;
68319;SDS011;55168;51.120;17.024;2022-11-15T00:31:02;66.8;;;43.7;;
68319;SDS011;55168;51.120;17.024;2022-11-15T00:32:00;69.3;;;45.8;;
68319;SDS011;55168;51.120;17.024;2022-11-15T00:33:02;69.3;;;45.8;;
68319;SDS011;55168;51.120;17.024;2022-11-15T00:34:00;69.3;;;45.8;;
68319;SDS011;55168;51.120;17.024;2022-11-15T00:35:00;69.3;;;45.8;;
68319;SDS011;55168;51.120;17.024;2022-11-15T00:36:05;69.3;;;45.8;;
68319;SDS011;55168;51.120;17.024;2022-11-15T00:37:00;67.6;;;43.2;;
68319;SDS011;55168;51.120;17.024;2022-11-15T00:38:00;67.6;;;43.2;;
68319;SDS011;55168;51.120;17.024;2022-11-15T00:39:00;67.6;;;43.2;;
68319;SDS011;55168;51.120;17.024;2022-11-15T00:40:00;67.6;;;43.2;;
68319;SDS011;55168;51.120;17.024;2022-11-15T00:41:00;67.6;;;43.2;;
68319;SDS011;55168;51.120;17.024;2022-11-15T00:42:00;71.9;;;44.7;;
68319;SDS011;55168;51.120;17.024;2022-11-15T00:43:00;71.9;;;44.7;;
68319;SDS011;55168;51.120;17.024;2022-11-15T00:44:00;71.9;;;44.7;;
68319;SDS011;55168;51.120;17.024;2022-11-15T00:45:00;71.9;;;44.7;;
68319;SDS011;55168;51.120;17.024;2022-11-15T00:46:00;71.9;;;44.7;;
68319;SDS011;55168;51.120;17.024;2022-11-15T00:47:00;71.4;;;45.0;;
68319;SDS011;55168;51.120;17.024;2022-11-15T00:48:00;71.4;;;45.0;;
68319;SDS011;55168;51.120;17.024;2022-11-15T00:49:00;71.4;;;45.0;;
68319;SDS011;55168;51.120;17.024;2022-11-15T00:50:00;71.4;;;45.0;;
68319;SDS011;55168;51.120;17.024;2022-11-15T00:51:00;71.4;;;45.0;;
68319;SDS011;55168;51.120;17.024;2022-11-15T00:52:00;67.0;;;44.4;;
68319;SDS011;55168;51.120;17.024;2022-11-15T00:53:00;67.0;;;44.4;;
68319;SDS011;55168;51.120;17.024;2022-11-15T00:54:00;67.0;;;44.4;;
68319;SDS011;55168;51.120;17.024;2022-11-15T00:55:00;67.0;;;44.4;;
68319;SDS011;55168;51.120;17.024;2022-11-15T00:56:00;67.0;;;44.4;;
68319;SDS011;55168;51.120;17.024;2022-11-15T00:57:00;68.2;;;44.4;;
68319;SDS011;55168;51.120;17.024;2022-11-15T00:58:00;68.2;;;44.4;;
68319;SDS011;55168;51.120;17.024;2022-11-15T00:59:00;68.2;;;44.4;;
68319;SDS011;55168;51.120;17.024;2022-11-15T01:00:00;68.2;;;44.4;;
68319;SDS011;55168;51.120;17.024;2022-11-15T01:01:11;68.2;;;44.4;;
68319;SDS011;55168;51.120;17.024;2022-11-15T01:02:00;68.7;;;44.1;;
68319;SDS011;55168;51.120;17.024;2022-11-15T01:03:00;68.7;;;44.1;;
68319;SDS011;55168;51.120;17.024;2022-11-15T01:04:00;68.7;;;44.1;;
68319;SDS011;55168;51.120;17.024;2022-11-15T01:05:00;68.7;;;44.1;;
68319;SDS011;55168;51.120;17.024;2022-11-15T01:06:00;68.7;;;44.1;;
68319;SDS011;55168;51.120;17.024;2022-11-15T01:07:00;72.5;;;45.7;;
68319;SDS011;55168;51.120;17.024;2022-11-15T01:08:00;72.5;;;45.7;;
68319;SDS011;55168;51.120;17.024;2022-11-15T01:09:00;72.5;;;45.7;;
68319;SDS011;55168;51.120;17.024;2022-11-15T01:10:00;72.5;;;45.7;;
68319;SDS011;55168;51.120;17.024;2022-11-15T01:11:02;72.5;;;45.7;;
68319;SDS011;55168;51.120;17.024;2022-11-15T01:12:00;72.6;;;45.7;;
68319;SDS011;55168;51.120;17.024;2022-11-15T01:13:00;72.6;;;45.7;;
68319;SDS011;55168;51.120;17.024;2022-11-15T01:14:00;72.6;;;45.7;;
68319;SDS011;55168;51.120;17.024;2022-11-15T01:15:00;72.6;;;45.7;;
68319;SDS011;55168;51.120;17.024;2022-11-15T01:16:10;72.6;;;45.7;;
68319;SDS011;55168;51.120;17.024;2022-11-15T01:17:00;68.7;;;44.2;;
68319;SDS011;55168;51.120;17.024;2022-11-15T01:18:00;68.7;;;44.2;;
68319;SDS011;55168;51.120;17.024;2022-11-15T01:19:00;68.7;;;44.2;;
68319;SDS011;55168;51.120;17.024;2022-11-15T01:20:00;68.7;;;44.2;;
68319;SDS011;55168;51.120;17.024;2022-11-15T01:21:03;68.7;;;44.2;;
68319;SDS011;55168;51.120;17.024;2022-11-15T01:22:00;69.6;;;43.5;;
68319;SDS011;55168;51.120;17.024;2022-11-15T01:23:00;69.6;;;43.5;;
68319;SDS011;55168;51.120;17.024;2022-11-15T01:24:00;69.6;;;43.5;;
68319;SDS011;55168;51.120;17.024;2022-11-15T01:25:00;69.6;;;43.5;;
68319;SDS011;55168;51.120;17.024;2022-11-15T01:26:01;69.6;;;43.5;;
68319;SDS011;55168;51.120;17.024;2022-11-15T01:27:00;69.8;;;43.6;;
68319;SDS011;55168;51.120;17.024;2022-11-15T01:28:00;69.8;;;43.6;;
68319;SDS011;55168;51.120;17.024;2022-11-15T01:29:00;69.8;;;43.6;;
68319;SDS011;55168;51.120;17.024;2022-11-15T01:30:00;69.8;;;43.6;;
68319;SDS011;55168;51.120;17.024;2022-11-15T01:31:06;69.8;;;43.6;;
68319;SDS011;55168;51.120;17.024;2022-11-15T01:32:00;69.8;;;45.2;;
68319;SDS011;55168;51.120;17.024;2022-11-15T01:33:00;69.8;;;45.2;;
68319;SDS011;55168;51.120;17.024;2022-11-15T01:34:00;69.8;;;45.2;;
68319;SDS011;55168;51.120;17.024;2022-11-15T01:35:00;69.8;;;45.2;;
68319;SDS011;55168;51.120;17.024;2022-11-15T01:36:03;69.8;;;45.2;;
68319;SDS011;55168;51.120;17.024;2022-11-15T01:37:00;69.6;;;43.8;;
68319;SDS011;55168;51.120;17.024;2022-11-15T01:38:00;69.6;;;43.8;;
68319;SDS011;55168;51.120;17.024;2022-11-15T01:39:00;69.6;;;43.8;;
68319;SDS011;55168;51.120;17.024;2022-11-15T01:40:00;69.6;;;43.8;;
68319;SDS011;55168;51.120;17.024;2022-11-15T01:41:00;69.6;;;43.8;;
68319;SDS011;55168;51.120;17.024;2022-11-15T01:42:00;68.2;;;42.2;;
68319;SDS011;55168;51.120;17.024;2022-11-15T01:43:18;68.2;;;42.2;;
68319;SDS011;55168;51.120;17.024;2022-11-15T01:45:00;68.2;;;42.2;;
68319;SDS011;55168;51.120;17.024;2022-11-15T01:47:03;71.5;;;43.2;;
68319;SDS011;55168;51.120;17.024;2022-11-15T01:48:00;71.5;;;43.2;;
68319;SDS011;55168;51.120;17.024;2022-11-15T01:49:03;71.5;;;43.2;;
68319;SDS011;55168;51.120;17.024;2022-11-15T01:50:10;71.5;;;43.2;;
68319;SDS011;55168;51.120;17.024;2022-11-15T01:51:03;71.5;;;43.2;;
68319;SDS011;55168;51.120;17.024;2022-11-15T01:52:02;74.8;;;44.3;;
68319;SDS011;55168;51.120;17.024;2022-11-15T01:53:00;74.8;;;44.3;;
68319;SDS011;55168;51.120;17.024;2022-11-15T01:54:04;74.8;;;44.3;;
68319;SDS011;55168;51.120;17.024;2022-11-15T01:55:05;74.8;;;44.3;;
68319;SDS011;55168;51.120;17.024;2022-11-15T01:56:04;74.8;;;44.3;;
68319;SDS011;55168;51.120;17.024;2022-11-15T01:57:04;67.1;;;41.5;;
68319;SDS011;55168;51.120;17.024;2022-11-15T01:58:02;67.1;;;41.5;;
68319;SDS011;55168;51.120;17.024;2022-11-15T01:59:03;67.1;;;41.5;;
68319;SDS011;55168;51.120;17.024;2022-11-15T02:00:00;67.1;;;41.5;;
68319;SDS011;55168;51.120;17.024;2022-11-15T02:01:00;67.1;;;41.5;;
68319;SDS011;55168;51.120;17.024;2022-11-15T02:02:00;71.9;;;43.0;;
68319;SDS011;55168;51.120;17.024;2022-11-15T02:03:00;71.9;;;43.0;;
68319;SDS011;55168;51.120;17.024;2022-11-15T02:04:05;71.9;;;43.0;;
68319;SDS011;55168;51.120;17.024;2022-11-15T02:05:00;71.9;;;43.0;;
68319;SDS011;55168;51.120;17.024;2022-11-15T02:06:00;71.9;;;43.0;;
68319;SDS011;55168;51.120;17.024;2022-11-15T02:07:02;66.1;;;41.3;;
68319;SDS011;55168;51.120;17.024;2022-11-15T02:08:00;66.1;;;41.3;;
68319;SDS011;55168;51.120;17.024;2022-11-15T02:09:00;66.1;;;41.3;;
68319;SDS011;55168;51.120;17.024;2022-11-15T02:10:04;66.1;;;41.3;;
68319;SDS011;55168;51.120;17.024;2022-11-15T02:11:00;66.1;;;41.3;;
68319;SDS011;55168;51.120;17.024;2022-11-15T02:12:00;70.7;;;42.8;;
68319;SDS011;55168;51.120;17.024;2022-11-15T02:13:00;70.7;;;42.8;;
68319;SDS011;55168;51.120;17.024;2022-11-15T02:14:01;70.7;;;42.8;;
68319;SDS011;55168;51.120;17.024;2022-11-15T02:15:01;70.7;;;42.8;;
68319;SDS011;55168;51.120;17.024;2022-11-15T02:16:08;70.7;;;42.8;;
68319;SDS011;55168;51.120;17.024;2022-11-15T02:17:20;70.1;;;41.8;;
68319;SDS011;55168;51.120;17.024;2022-11-15T02:18:14;70.1;;;41.8;;
68319;SDS011;55168;51.120;17.024;2022-11-15T02:21:17;70.1;;;41.8;;
68319;SDS011;55168;51.120;17.024;2022-11-15T02:25:12;68.5;;;41.6;;
68319;SDS011;55168;51.120;17.024;2022-11-15T02:29:05;69.7;;;42.2;;
68319;SDS011;55168;51.120;17.024;2022-11-15T02:30:19;69.7;;;42.2;;
68319;SDS011;55168;51.120;17.024;2022-11-15T02:31:04;69.7;;;42.2;;
68319;SDS011;55168;51.120;17.024;2022-11-15T02:33:03;67.2;;;40.0;;
68319;SDS011;55168;51.120;17.024;2022-11-15T02:34:05;67.2;;;40.0;;
68319;SDS011;55168;51.120;17.024;2022-11-15T02:35:07;67.2;;;40.0;;
68319;SDS011;55168;51.120;17.024;2022-11-15T02:36:04;67.2;;;40.0;;
68319;SDS011;55168;51.120;17.024;2022-11-15T02:37:11;66.1;;;41.6;;
68319;SDS011;55168;51.120;17.024;2022-11-15T02:38:07;66.1;;;41.6;;
68319;SDS011;55168;51.120;17.024;2022-11-15T02:39:06;66.1;;;41.6;;
68319;SDS011;55168;51.120;17.024;2022-11-15T02:40:06;66.1;;;41.6;;
68319;SDS011;55168;51.120;17.024;2022-11-15T02:41:04;66.1;;;41.6;;
68319;SDS011;55168;51.120;17.024;2022-11-15T02:42:04;66.5;;;41.2;;
68319;SDS011;55168;51.120;17.024;2022-11-15T02:43:05;66.5;;;41.2;;
68319;SDS011;55168;51.120;17.024;2022-11-15T02:44:03;66.5;;;41.2;;
68319;SDS011;55168;51.120;17.024;2022-11-15T02:45:03;66.5;;;41.2;;
68319;SDS011;55168;51.120;17.024;2022-11-15T02:46:06;66.5;;;41.2;;
68319;SDS011;55168;51.120;17.024;2022-11-15T02:47:02;63.8;;;40.8;;
68319;SDS011;55168;51.120;17.024;2022-11-15T02:48:01;63.8;;;40.8;;
68319;SDS011;55168;51.120;17.024;2022-11-15T02:49:00;63.8;;;40.8;;
68319;SDS011;55168;51.120;17.024;2022-11-15T02:50:04;63.8;;;40.8;;
68319;SDS011;55168;51.120;17.024;2022-11-15T02:51:00;63.8;;;40.8;;
68319;SDS011;55168;51.120;17.024;2022-11-15T02:52:00;67.5;;;40.8;;
68319;SDS011;55168;51.120;17.024;2022-11-15T02:53:00;67.5;;;40.8;;
68319;SDS011;55168;51.120;17.024;2022-11-15T02:54:00;67.5;;;40.8;;
68319;SDS011;55168;51.120;17.024;2022-11-15T02:55:01;67.5;;;40.8;;
68319;SDS011;55168;51.120;17.024;2022-11-15T02:56:00;67.5;;;40.8;;
68319;SDS011;55168;51.120;17.024;2022-11-15T02:57:04;66.1;;;40.4;;
68319;SDS011;55168;51.120;17.024;2022-11-15T02:58:16;66.1;;;40.4;;
68319;SDS011;55168;51.120;17.024;2022-11-15T03:00:03;66.1;;;40.4;;
68319;SDS011;55168;51.120;17.024;2022-11-15T03:01:06;66.1;;;40.4;;
68319;SDS011;55168;51.120;17.024;2022-11-15T03:02:07;66.8;;;41.5;;
68319;SDS011;55168;51.120;17.024;2022-11-15T03:03:07;66.8;;;41.5;;
68319;SDS011;55168;51.120;17.024;2022-11-15T03:04:15;66.8;;;41.5;;
68319;SDS011;55168;51.120;17.024;2022-11-15T03:05:07;66.8;;;41.5;;
68319;SDS011;55168;51.120;17.024;2022-11-15T03:06:12;66.8;;;41.5;;
68319;SDS011;55168;51.120;17.024;2022-11-15T03:07:05;64.5;;;39.9;;
68319;SDS011;55168;51.120;17.024;2022-11-15T03:08:10;64.5;;;39.9;;
68319;SDS011;55168;51.120;17.024;2022-11-15T03:09:09;64.5;;;39.9;;
68319;SDS011;55168;51.120;17.024;2022-11-15T03:10:12;64.5;;;39.9;;
68319;SDS011;55168;51.120;17.024;2022-11-15T03:11:18;64.5;;;39.9;;
68319;SDS011;55168;51.120;17.024;2022-11-15T03:12:10;64.6;;;40.5;;
68319;SDS011;55168;51.120;17.024;2022-11-15T03:14:13;64.6;;;40.5;;
68319;SDS011;55168;51.120;17.024;2022-11-15T03:15:05;64.6;;;40.5;;
68319;SDS011;55168;51.120;17.024;2022-11-15T03:17:09;66.3;;;40.1;;
68319;SDS011;55168;51.120;17.024;2022-11-15T03:18:04;66.3;;;40.1;;
68319;SDS011;55168;51.120;17.024;2022-11-15T03:19:04;66.3;;;40.1;;
68319;SDS011;55168;51.120;17.024;2022-11-15T03:20:03;66.3;;;40.1;;
68319;SDS011;55168;51.120;17.024;2022-11-15T03:21:02;66.3;;;40.1;;
68319;SDS011;55168;51.120;17.024;2022-11-15T03:22:03;67.5;;;43.5;;
68319;SDS011;55168;51.120;17.024;2022-11-15T03:23:03;67.5;;;43.5;;
68319;SDS011;55168;51.120;17.024;2022-11-15T03:24:03;67.5;;;43.5;;
68319;SDS011;55168;51.120;17.024;2022-11-15T03:25:04;67.5;;;43.5;;
68319;SDS011;55168;51.120;17.024;2022-11-15T03:26:00;67.5;;;43.5;;
68319;SDS011;55168;51.120;17.024;2022-11-15T03:27:01;73.6;;;42.7;;
68319;SDS011;55168;51.120;17.024;2022-11-15T03:28:02;73.6;;;42.7;;
68319;SDS011;55168;51.120;17.024;2022-11-15T03:29:06;73.6;;;42.7;;
68319;SDS011;55168;51.120;17.024;2022-11-15T03:30:03;73.6;;;42.7;;
68319;SDS011;55168;51.120;17.024;2022-11-15T03:31:01;73.6;;;42.7;;
68319;SDS011;55168;51.120;17.024;2022-11-15T03:32:03;71.3;;;42.6;;
68319;SDS011;55168;51.120;17.024;2022-11-15T03:33:02;71.3;;;42.6;;
68319;SDS011;55168;51.120;17.024;2022-11-15T03:34:02;71.3;;;42.6;;
68319;SDS011;55168;51.120;17.024;2022-11-15T03:35:11;71.3;;;42.6;;
68319;SDS011;55168;51.120;17.024;2022-11-15T03:36:00;71.3;;;42.6;;
68319;SDS011;55168;51.120;17.024;2022-11-15T03:37:00;66.5;;;42.6;;
68319;SDS011;55168;51.120;17.024;2022-11-15T03:39:02;66.5;;;42.6;;
68319;SDS011;55168;51.120;17.024;2022-11-15T03:40:00;66.5;;;42.6;;
68319;SDS011;55168;51.120;17.024;2022-11-15T03:41:04;66.5;;;42.6;;
68319;SDS011;55168;51.120;17.024;2022-11-15T03:43:16;69.3;;;41.9;;
68319;SDS011;55168;51.120;17.024;2022-11-15T03:44:10;69.3;;;41.9;;
68319;SDS011;55168;51.120;17.024;2022-11-15T03:45:27;69.3;;;41.9;;
68319;SDS011;55168;51.120;17.024;2022-11-15T03:46:05;69.3;;;41.9;;
68319;SDS011;55168;51.120;17.024;2022-11-15T03:47:11;72.7;;;43.3;;
68319;SDS011;55168;51.120;17.024;2022-11-15T03:48:07;72.7;;;43.3;;
68319;SDS011;55168;51.120;17.024;2022-11-15T03:49:09;72.7;;;43.3;;
68319;SDS011;55168;51.120;17.024;2022-11-15T03:50:04;72.7;;;43.3;;
68319;SDS011;55168;51.120;17.024;2022-11-15T03:51:00;72.7;;;43.3;;
68319;SDS011;55168;51.120;17.024;2022-11-15T03:52:01;69.9;;;42.6;;
68319;SDS011;55168;51.120;17.024;2022-11-15T03:53:00;69.9;;;42.6;;
68319;SDS011;55168;51.120;17.024;2022-11-15T03:54:03;69.9;;;42.6;;
68319;SDS011;55168;51.120;17.024;2022-11-15T03:55:01;69.9;;;42.6;;
68319;SDS011;55168;51.120;17.024;2022-11-15T03:56:00;69.9;;;42.6;;
68319;SDS011;55168;51.120;17.024;2022-11-15T03:57:00;71.4;;;42.6;;
68319;SDS011;55168;51.120;17.024;2022-11-15T03:58:00;71.4;;;42.6;;
68319;SDS011;55168;51.120;17.024;2022-11-15T03:59:00;71.4;;;42.6;;
68319;SDS011;55168;51.120;17.024;2022-11-15T04:00:00;71.4;;;42.6;;
68319;SDS011;55168;51.120;17.024;2022-11-15T04:01:00;71.4;;;42.6;;
68319;SDS011;55168;51.120;17.024;2022-11-15T04:02:00;70.8;;;43.3;;
68319;SDS011;55168;51.120;17.024;2022-11-15T04:03:00;70.8;;;43.3;;
68319;SDS011;55168;51.120;17.024;2022-11-15T04:04:00;70.8;;;43.3;;
68319;SDS011;55168;51.120;17.024;2022-11-15T04:05:00;70.8;;;43.3;;
68319;SDS011;55168;51.120;17.024;2022-11-15T04:06:00;70.8;;;43.3;;
68319;SDS011;55168;51.120;17.024;2022-11-15T04:07:00;68.1;;;41.4;;
68319;SDS011;55168;51.120;17.024;2022-11-15T04:08:00;68.1;;;41.4;;
68319;SDS011;55168;51.120;17.024;2022-11-15T04:09:00;68.1;;;41.4;;
68319;SDS011;55168;51.120;17.024;2022-11-15T04:10:00;68.1;;;41.4;;
68319;SDS011;55168;51.120;17.024;2022-11-15T04:11:00;68.1;;;41.4;;
68319;SDS011;55168;51.120;17.024;2022-11-15T04:12:00;72.4;;;43.2;;
68319;SDS011;55168;51.120;17.024;2022-11-15T04:13:01;72.4;;;43.2;;
68319;SDS011;55168;51.120;17.024;2022-11-15T04:14:00;72.4;;;43.2;;
68319;SDS011;55168;51.120;17.024;2022-11-15T04:15:04;72.4;;;43.2;;
68319;SDS011;55168;51.120;17.024;2022-11-15T04:16:00;72.4;;;43.2;;
68319;SDS011;55168;51.120;17.024;2022-11-15T04:17:00;70.6;;;42.1;;
68319;SDS011;55168;51.120;17.024;2022-11-15T04:18:00;70.6;;;42.1;;
68319;SDS011;55168;51.120;17.024;2022-11-15T04:19:00;70.6;;;42.1;;
68319;SDS011;55168;51.120;17.024;2022-11-15T04:20:00;70.6;;;42.1;;
68319;SDS011;55168;51.120;17.024;2022-11-15T04:21:00;70.6;;;42.1;;
68319;SDS011;55168;51.120;17.024;2022-11-15T04:22:00;67.9;;;41.0;;
68319;SDS011;55168;51.120;17.024;2022-11-15T04:23:01;67.9;;;41.0;;
68319;SDS011;55168;51.120;17.024;2022-11-15T04:24:00;67.9;;;41.0;;
68319;SDS011;55168;51.120;17.024;2022-11-15T04:25:00;67.9;;;41.0;;
68319;SDS011;55168;51.120;17.024;2022-11-15T04:26:02;67.9;;;41.0;;
68319;SDS011;55168;51.120;17.024;2022-11-15T04:27:00;69.4;;;42.4;;
68319;SDS011;55168;51.120;17.024;2022-11-15T04:28:00;69.4;;;42.4;;
68319;SDS011;55168;51.120;17.024;2022-11-15T04:29:00;69.4;;;42.4;;
68319;SDS011;55168;51.120;17.024;2022-11-15T04:30:00;69.4;;;42.4;;
68319;SDS011;55168;51.120;17.024;2022-11-15T04:31:00;69.4;;;42.4;;
68319;SDS011;55168;51.120;17.024;2022-11-15T04:32:03;68.5;;;41.8;;
68319;SDS011;55168;51.120;17.024;2022-11-15T04:33:00;68.5;;;41.8;;
68319;SDS011;55168;51.120;17.024;2022-11-15T04:34:00;68.5;;;41.8;;
68319;SDS011;55168;51.120;17.024;2022-11-15T04:35:00;68.5;;;41.8;;
68319;SDS011;55168;51.120;17.024;2022-11-15T04:36:00;68.5;;;41.8;;
68319;SDS011;55168;51.120;17.024;2022-11-15T04:37:00;70.4;;;42.7;;
68319;SDS011;55168;51.120;17.024;2022-11-15T04:38:01;70.4;;;42.7;;
68319;SDS011;55168;51.120;17.024;2022-11-15T04:39:00;70.4;;;42.7;;
68319;SDS011;55168;51.120;17.024;2022-11-15T04:40:00;70.4;;;42.7;;
68319;SDS011;55168;51.120;17.024;2022-11-15T04:41:00;70.4;;;42.7;;
68319;SDS011;55168;51.120;17.024;2022-11-15T04:42:00;68.9;;;40.7;;
68319;SDS011;55168;51.120;17.024;2022-11-15T04:43:00;68.9;;;40.7;;
68319;SDS011;55168;51.120;17.024;2022-11-15T04:44:00;68.9;;;40.7;;
68319;SDS011;55168;51.120;17.024;2022-11-15T04:45:00;68.9;;;40.7;;
68319;SDS011;55168;51.120;17.024;2022-11-15T04:46:00;68.9;;;40.7;;
68319;SDS011;55168;51.120;17.024;2022-11-15T04:47:00;66.7;;;40.3;;
68319;SDS011;55168;51.120;17.024;2022-11-15T04:48:00;66.7;;;40.3;;
68319;SDS011;55168;51.120;17.024;2022-11-15T04:49:00;66.7;;;40.3;;
68319;SDS011;55168;51.120;17.024;2022-11-15T04:50:00;66.7;;;40.3;;
68319;SDS011;55168;51.120;17.024;2022-11-15T04:51:00;66.7;;;40.3;;
68319;SDS011;55168;51.120;17.024;2022-11-15T04:52:00;64.8;;;41.0;;
68319;SDS011;55168;51.120;17.024;2022-11-15T04:53:00;64.8;;;41.0;;
68319;SDS011;55168;51.120;17.024;2022-11-15T04:54:00;64.8;;;41.0;;
68319;SDS011;55168;51.120;17.024;2022-11-15T04:55:00;64.8;;;41.0;;
68319;SDS011;55168;51.120;17.024;2022-11-15T04:56:00;64.8;;;41.0;;
68319;SDS011;55168;51.120;17.024;2022-11-15T04:57:00;63.5;;;39.7;;
68319;SDS011;55168;51.120;17.024;2022-11-15T04:58:00;63.5;;;39.7;;
68319;SDS011;55168;51.120;17.024;2022-11-15T04:59:00;63.5;;;39.7;;
68319;SDS011;55168;51.120;17.024;2022-11-15T05:00:00;63.5;;;39.7;;
68319;SDS011;55168;51.120;17.024;2022-11-15T05:01:08;61.6;;;38.7;;
68319;SDS011;55168;51.120;17.024;2022-11-15T05:02:00;61.6;;;38.7;;
68319;SDS011;55168;51.120;17.024;2022-11-15T05:03:00;61.6;;;38.7;;
68319;SDS011;55168;51.120;17.024;2022-11-15T05:04:00;61.6;;;38.7;;
68319;SDS011;55168;51.120;17.024;2022-11-15T05:05:00;61.6;;;38.7;;
68319;SDS011;55168;51.120;17.024;2022-11-15T05:06:00;61.6;;;38.7;;
68319;SDS011;55168;51.120;17.024;2022-11-15T05:07:00;65.5;;;41.6;;
68319;SDS011;55168;51.120;17.024;2022-11-15T05:08:00;65.5;;;41.6;;
68319;SDS011;55168;51.120;17.024;2022-11-15T05:09:00;65.5;;;41.6;;
68319;SDS011;55168;51.120;17.024;2022-11-15T05:10:00;65.5;;;41.6;;
68319;SDS011;55168;51.120;17.024;2022-11-15T05:11:00;65.5;;;41.6;;
68319;SDS011;55168;51.120;17.024;2022-11-15T05:12:00;67.2;;;40.5;;
68319;SDS011;55168;51.120;17.024;2022-11-15T05:13:00;67.2;;;40.5;;
68319;SDS011;55168;51.120;17.024;2022-11-15T05:14:00;67.2;;;40.5;;
68319;SDS011;55168;51.120;17.024;2022-11-15T05:15:00;67.2;;;40.5;;
68319;SDS011;55168;51.120;17.024;2022-11-15T05:16:00;67.2;;;40.5;;
68319;SDS011;55168;51.120;17.024;2022-11-15T05:17:00;66.8;;;42.2;;
68319;SDS011;55168;51.120;17.024;2022-11-15T05:18:00;66.8;;;42.2;;
68319;SDS011;55168;51.120;17.024;2022-11-15T05:19:00;66.8;;;42.2;;
68319;SDS011;55168;51.120;17.024;2022-11-15T05:20:00;66.8;;;42.2;;
68319;SDS011;55168;51.120;17.024;2022-11-15T05:21:05;64.9;;;41.1;;
68319;SDS011;55168;51.120;17.024;2022-11-15T05:22:00;64.9;;;41.1;;
68319;SDS011;55168;51.120;17.024;2022-11-15T05:23:00;64.9;;;41.1;;
68319;SDS011;55168;51.120;17.024;2022-11-15T05:24:00;64.9;;;41.1;;
68319;SDS011;55168;51.120;17.024;2022-11-15T05:25:00;64.9;;;41.1;;
68319;SDS011;55168;51.120;17.024;2022-11-15T05:26:00;67.5;;;41.0;;
68319;SDS011;55168;51.120;17.024;2022-11-15T05:27:00;67.5;;;41.0;;
68319;SDS011;55168;51.120;17.024;2022-11-15T05:28:00;67.5;;;41.0;;
68319;SDS011;55168;51.120;17.024;2022-11-15T05:29:00;67.5;;;41.0;;
68319;SDS011;55168;51.120;17.024;2022-11-15T05:30:00;67.5;;;41.0;;
68319;SDS011;55168;51.120;17.024;2022-11-15T05:31:09;66.6;;;40.2;;
68319;SDS011;55168;51.120;17.024;2022-11-15T05:32:00;66.6;;;40.2;;
68319;SDS011;55168;51.120;17.024;2022-11-15T05:33:00;66.6;;;40.2;;
68319;SDS011;55168;51.120;17.024;2022-11-15T05:34:00;66.6;;;40.2;;
68319;SDS011;55168;51.120;17.024;2022-11-15T05:35:00;66.6;;;40.2;;
68319;SDS011;55168;51.120;17.024;2022-11-15T05:36:06;63.2;;;39.4;;
68319;SDS011;55168;51.120;17.024;2022-11-15T05:37:00;63.2;;;39.4;;
68319;SDS011;55168;51.120;17.024;2022-11-15T05:38:00;63.2;;;39.4;;
68319;SDS011;55168;51.120;17.024;2022-11-15T05:39:00;63.2;;;39.4;;
68319;SDS011;55168;51.120;17.024;2022-11-15T05:40:00;63.2;;;39.4;;
68319;SDS011;55168;51.120;17.024;2022-11-15T05:41:00;61.0;;;38.7;;
68319;SDS011;55168;51.120;17.024;2022-11-15T05:42:06;61.0;;;38.7;;
68319;SDS011;55168;51.120;17.024;2022-11-15T05:43:01;61.0;;;38.7;;
68319;SDS011;55168;51.120;17.024;2022-11-15T05:44:01;61.0;;;38.7;;
68319;SDS011;55168;51.120;17.024;2022-11-15T05:45:02;61.0;;;38.7;;
68319;SDS011;55168;51.120;17.024;2022-11-15T05:46:00;62.2;;;38.7;;
68319;SDS011;55168;51.120;17.024;2022-11-15T05:47:00;62.2;;;38.7;;
68319;SDS011;55168;51.120;17.024;2022-11-15T05:48:01;62.2;;;38.7;;
68319;SDS011;55168;51.120;17.024;2022-11-15T05:49:00;62.2;;;38.7;;
68319;SDS011;55168;51.120;17.024;2022-11-15T05:50:00;62.2;;;38.7;;
68319;SDS011;55168;51.120;17.024;2022-11-15T05:51:01;60.3;;;37.8;;
68319;SDS011;55168;51.120;17.024;2022-11-15T05:52:00;60.3;;;37.8;;
68319;SDS011;55168;51.120;17.024;2022-11-15T05:53:01;60.3;;;37.8;;
68319;SDS011;55168;51.120;17.024;2022-11-15T05:54:00;60.3;;;37.8;;
68319;SDS011;55168;51.120;17.024;2022-11-15T05:55:01;60.3;;;37.8;;
68319;SDS011;55168;51.120;17.024;2022-11-15T05:56:00;64.3;;;39.0;;
68319;SDS011;55168;51.120;17.024;2022-11-15T05:57:00;64.3;;;39.0;;
68319;SDS011;55168;51.120;17.024;2022-11-15T05:58:00;64.3;;;39.0;;
68319;SDS011;55168;51.120;17.024;2022-11-15T05:59:00;64.3;;;39.0;;
68319;SDS011;55168;51.120;17.024;2022-11-15T06:00:00;64.3;;;39.0;;
68319;SDS011;55168;51.120;17.024;2022-11-15T06:01:00;59.9;;;36.8;;
68319;SDS011;55168;51.120;17.024;2022-11-15T06:02:00;59.9;;;36.8;;
68319;SDS011;55168;51.120;17.024;2022-11-15T06:03:00;59.9;;;36.8;;
68319;SDS011;55168;51.120;17.024;2022-11-15T06:04:00;59.9;;;36.8;;
68319;SDS011;55168;51.120;17.024;2022-11-15T06:05:00;59.9;;;36.8;;
68319;SDS011;55168;51.120;17.024;2022-11-15T06:06:00;60.9;;;38.7;;
68319;SDS011;55168;51.120;17.024;2022-11-15T06:07:00;60.9;;;38.7;;
68319;SDS011;55168;51.120;17.024;2022-11-15T06:08:00;60.9;;;38.7;;
68319;SDS011;55168;51.120;17.024;2022-11-15T06:09:00;60.9;;;38.7;;
68319;SDS011;55168;51.120;17.024;2022-11-15T06:10:00;60.9;;;38.7;;
68319;SDS011;55168;51.120;17.024;2022-11-15T06:11:05;60.6;;;37.7;;